sensor_id;sensor_type;location;lat;lon;timestamp;temperature;humidity
4687;DHT22;2357;47.316;-1.348;2023-04-01T00:00:44;11.10;99.90
4687;DHT22;2357;47.316;-1.348;2023-04-01T00:03:11;11.10;99.90
4687;DHT22;2357;47.316;-1.348;2023-04-01T00:05:36;11.10;99.90
4687;DHT22;2357;47.316;-1.348;2023-04-01T00:08:02;11.10;99.90
4687;DHT22;2357;47.316;-1.348;2023-04-01T00:10:28;11.10;99.90
4687;DHT22;2357;47.316;-1.348;2023-04-01T00:12:53;11.10;99.90
4687;DHT22;2357;47.316;-1.348;2023-04-01T00:15:19;11.10;99.90
4687;DHT22;2357;47.316;-1.348;2023-04-01T00:17:45;11.10;99.90
4687;DHT22;2357;47.316;-1.348;2023-04-01T00:20:11;11.10;99.90
4687;DHT22;2357;47.316;-1.348;2023-04-01T00:22:37;11.10;99.90
4687;DHT22;2357;47.316;-1.348;2023-04-01T00:25:04;11.20;99.90
4687;DHT22;2357;47.316;-1.348;2023-04-01T00:27:30;11.20;99.90
4687;DHT22;2357;47.316;-1.348;2023-04-01T00:29:55;11.20;99.90
4687;DHT22;2357;47.316;-1.348;2023-04-01T00:32:21;11.20;99.90
4687;DHT22;2357;47.316;-1.348;2023-04-01T00:34:50;11.20;99.90
4687;DHT22;2357;47.316;-1.348;2023-04-01T00:37:17;11.20;99.90
4687;DHT22;2357;47.316;-1.348;2023-04-01T00:39:43;11.10;99.90
4687;DHT22;2357;47.316;-1.348;2023-04-01T00:42:10;11.20;99.90
4687;DHT22;2357;47.316;-1.348;2023-04-01T00:44:41;11.20;99.90
4687;DHT22;2357;47.316;-1.348;2023-04-01T00:47:07;11.20;99.90
4687;DHT22;2357;47.316;-1.348;2023-04-01T00:49:45;11.30;99.90
4687;DHT22;2357;47.316;-1.348;2023-04-01T00:52:13;11.20;99.90
4687;DHT22;2357;47.316;-1.348;2023-04-01T00:54:41;11.20;99.90
4687;DHT22;2357;47.316;-1.348;2023-04-01T00:57:27;11.20;99.90
4687;DHT22;2357;47.316;-1.348;2023-04-01T00:59:54;11.10;99.90
4687;DHT22;2357;47.316;-1.348;2023-04-01T01:02:21;11.10;99.90
4687;DHT22;2357;47.316;-1.348;2023-04-01T01:04:47;11.00;99.90
4687;DHT22;2357;47.316;-1.348;2023-04-01T01:10:18;11.00;99.90
4687;DHT22;2357;47.316;-1.348;2023-04-01T01:15:28;10.90;99.90
4687;DHT22;2357;47.316;-1.348;2023-04-01T01:18:05;10.90;99.90
4687;DHT22;2357;47.316;-1.348;2023-04-01T01:29:03;10.80;99.90
4687;DHT22;2357;47.316;-1.348;2023-04-01T01:37:16;10.70;99.90
4687;DHT22;2357;47.316;-1.348;2023-04-01T01:39:46;10.70;99.90
4687;DHT22;2357;47.316;-1.348;2023-04-01T01:42:15;10.60;99.90
4687;DHT22;2357;47.316;-1.348;2023-04-01T01:44:44;10.60;99.90
4687;DHT22;2357;47.316;-1.348;2023-04-01T01:47:11;10.60;99.90
4687;DHT22;2357;47.316;-1.348;2023-04-01T01:49:39;10.60;99.90
4687;DHT22;2357;47.316;-1.348;2023-04-01T01:52:06;10.60;99.90
4687;DHT22;2357;47.316;-1.348;2023-04-01T01:54:32;10.60;99.90
4687;DHT22;2357;47.316;-1.348;2023-04-01T01:57:07;10.60;99.90
4687;DHT22;2357;47.316;-1.348;2023-04-01T01:59:38;10.60;99.90
4687;DHT22;2357;47.316;-1.348;2023-04-01T02:02:05;10.60;99.90
4687;DHT22;2357;47.316;-1.348;2023-04-01T02:04:39;10.60;99.90
4687;DHT22;2357;47.316;-1.348;2023-04-01T02:07:13;10.70;99.90
4687;DHT22;2357;47.316;-1.348;2023-04-01T02:09:40;10.60;99.90
4687;DHT22;2357;47.316;-1.348;2023-04-01T02:12:09;10.60;99.90
4687;DHT22;2357;47.316;-1.348;2023-04-01T02:17:19;10.70;99.90
4687;DHT22;2357;47.316;-1.348;2023-04-01T02:19:59;10.80;99.90
4687;DHT22;2357;47.316;-1.348;2023-04-01T02:22:29;10.80;99.90
4687;DHT22;2357;47.316;-1.348;2023-04-01T02:25:07;10.90;99.90
4687;DHT22;2357;47.316;-1.348;2023-04-01T02:27:33;10.90;99.90
4687;DHT22;2357;47.316;-1.348;2023-04-01T02:29:59;10.90;99.90
4687;DHT22;2357;47.316;-1.348;2023-04-01T02:32:25;10.90;99.90
4687;DHT22;2357;47.316;-1.348;2023-04-01T02:34:53;10.90;99.90
4687;DHT22;2357;47.316;-1.348;2023-04-01T02:37:19;10.90;99.90
4687;DHT22;2357;47.316;-1.348;2023-04-01T02:39:45;10.90;99.90
4687;DHT22;2357;47.316;-1.348;2023-04-01T02:42:10;10.90;99.90
4687;DHT22;2357;47.316;-1.348;2023-04-01T02:44:36;10.90;99.90
4687;DHT22;2357;47.316;-1.348;2023-04-01T02:47:02;10.80;99.90
4687;DHT22;2357;47.316;-1.348;2023-04-01T02:49:29;10.90;99.90
4687;DHT22;2357;47.316;-1.348;2023-04-01T02:51:55;10.90;99.90
4687;DHT22;2357;47.316;-1.348;2023-04-01T02:54:21;10.90;99.90
4687;DHT22;2357;47.316;-1.348;2023-04-01T02:56:46;11.00;99.90
4687;DHT22;2357;47.316;-1.348;2023-04-01T02:59:12;11.00;99.90
4687;DHT22;2357;47.316;-1.348;2023-04-01T03:01:37;11.00;99.90
4687;DHT22;2357;47.316;-1.348;2023-04-01T03:04:03;11.00;99.90
4687;DHT22;2357;47.316;-1.348;2023-04-01T03:06:29;11.00;99.90
4687;DHT22;2357;47.316;-1.348;2023-04-01T03:08:55;11.00;99.90
4687;DHT22;2357;47.316;-1.348;2023-04-01T03:11:20;10.90;99.90
4687;DHT22;2357;47.316;-1.348;2023-04-01T03:13:46;10.90;99.90
4687;DHT22;2357;47.316;-1.348;2023-04-01T03:16:12;10.90;99.90
4687;DHT22;2357;47.316;-1.348;2023-04-01T03:18:38;10.90;99.90
4687;DHT22;2357;47.316;-1.348;2023-04-01T03:21:21;10.90;99.90
4687;DHT22;2357;47.316;-1.348;2023-04-01T03:23:47;11.00;99.90
4687;DHT22;2357;47.316;-1.348;2023-04-01T03:26:13;10.90;99.90
4687;DHT22;2357;47.316;-1.348;2023-04-01T03:28:39;10.90;99.90
4687;DHT22;2357;47.316;-1.348;2023-04-01T03:31:05;10.90;99.90
4687;DHT22;2357;47.316;-1.348;2023-04-01T03:33:31;10.80;99.90
4687;DHT22;2357;47.316;-1.348;2023-04-01T03:35:57;10.80;99.90
4687;DHT22;2357;47.316;-1.348;2023-04-01T03:38:22;10.70;99.90
4687;DHT22;2357;47.316;-1.348;2023-04-01T03:40:48;10.70;99.90
4687;DHT22;2357;47.316;-1.348;2023-04-01T03:43:14;10.70;99.90
4687;DHT22;2357;47.316;-1.348;2023-04-01T03:45:46;10.70;99.90
4687;DHT22;2357;47.316;-1.348;2023-04-01T03:48:13;10.70;99.90
4687;DHT22;2357;47.316;-1.348;2023-04-01T03:50:39;10.70;99.90
4687;DHT22;2357;47.316;-1.348;2023-04-01T03:53:04;10.60;99.90
4687;DHT22;2357;47.316;-1.348;2023-04-01T03:55:30;10.60;99.90
4687;DHT22;2357;47.316;-1.348;2023-04-01T03:57:56;10.60;99.90
4687;DHT22;2357;47.316;-1.348;2023-04-01T04:00:22;10.70;99.90
4687;DHT22;2357;47.316;-1.348;2023-04-01T04:02:48;10.70;99.90
4687;DHT22;2357;47.316;-1.348;2023-04-01T04:05:14;10.70;99.90
4687;DHT22;2357;47.316;-1.348;2023-04-01T04:07:39;10.70;99.90
4687;DHT22;2357;47.316;-1.348;2023-04-01T04:10:06;10.70;99.90
4687;DHT22;2357;47.316;-1.348;2023-04-01T04:12:32;10.70;99.90
4687;DHT22;2357;47.316;-1.348;2023-04-01T04:14:57;10.70;99.90
4687;DHT22;2357;47.316;-1.348;2023-04-01T04:17:23;10.70;99.90
4687;DHT22;2357;47.316;-1.348;2023-04-01T04:19:49;10.60;99.90
4687;DHT22;2357;47.316;-1.348;2023-04-01T04:22:14;10.60;99.90
4687;DHT22;2357;47.316;-1.348;2023-04-01T04:24:40;10.60;99.90
4687;DHT22;2357;47.316;-1.348;2023-04-01T04:27:05;10.70;99.90
4687;DHT22;2357;47.316;-1.348;2023-04-01T04:29:31;10.70;99.90
4687;DHT22;2357;47.316;-1.348;2023-04-01T04:31:57;10.70;99.90
4687;DHT22;2357;47.316;-1.348;2023-04-01T04:34:22;10.70;99.90
4687;DHT22;2357;47.316;-1.348;2023-04-01T04:36:48;10.60;99.90
4687;DHT22;2357;47.316;-1.348;2023-04-01T04:39:14;10.60;99.90
4687;DHT22;2357;47.316;-1.348;2023-04-01T04:41:40;10.50;99.90
4687;DHT22;2357;47.316;-1.348;2023-04-01T04:44:06;10.50;99.90
4687;DHT22;2357;47.316;-1.348;2023-04-01T04:46:32;10.50;99.90
4687;DHT22;2357;47.316;-1.348;2023-04-01T04:48:58;10.60;99.90
4687;DHT22;2357;47.316;-1.348;2023-04-01T04:51:24;10.60;99.90
4687;DHT22;2357;47.316;-1.348;2023-04-01T04:53:50;10.60;99.90
4687;DHT22;2357;47.316;-1.348;2023-04-01T04:56:20;10.50;99.90
4687;DHT22;2357;47.316;-1.348;2023-04-01T04:58:46;10.50;99.90
4687;DHT22;2357;47.316;-1.348;2023-04-01T05:01:13;10.50;99.90
4687;DHT22;2357;47.316;-1.348;2023-04-01T05:03:39;10.50;99.90
4687;DHT22;2357;47.316;-1.348;2023-04-01T05:06:06;10.40;99.90
4687;DHT22;2357;47.316;-1.348;2023-04-01T05:08:32;10.40;99.90
4687;DHT22;2357;47.316;-1.348;2023-04-01T05:10:59;10.40;99.90
4687;DHT22;2357;47.316;-1.348;2023-04-01T05:13:25;10.40;99.90
4687;DHT22;2357;47.316;-1.348;2023-04-01T05:15:51;10.30;99.90
4687;DHT22;2357;47.316;-1.348;2023-04-01T05:18:17;10.30;99.90
4687;DHT22;2357;47.316;-1.348;2023-04-01T05:20:50;10.30;99.90
4687;DHT22;2357;47.316;-1.348;2023-04-01T05:23:16;10.20;99.90
4687;DHT22;2357;47.316;-1.348;2023-04-01T05:25:43;10.20;99.90
4687;DHT22;2357;47.316;-1.348;2023-04-01T05:28:08;10.20;99.90
4687;DHT22;2357;47.316;-1.348;2023-04-01T05:30:34;10.20;99.90
4687;DHT22;2357;47.316;-1.348;2023-04-01T05:33:00;10.10;99.90
4687;DHT22;2357;47.316;-1.348;2023-04-01T05:35:25;10.10;99.90
4687;DHT22;2357;47.316;-1.348;2023-04-01T05:37:51;10.10;99.90
4687;DHT22;2357;47.316;-1.348;2023-04-01T05:40:17;10.10;99.90
4687;DHT22;2357;47.316;-1.348;2023-04-01T05:42:43;10.10;99.90
4687;DHT22;2357;47.316;-1.348;2023-04-01T05:45:09;10.00;99.90
4687;DHT22;2357;47.316;-1.348;2023-04-01T05:47:35;10.00;99.90
4687;DHT22;2357;47.316;-1.348;2023-04-01T05:50:00;10.00;99.90
4687;DHT22;2357;47.316;-1.348;2023-04-01T05:52:26;10.00;99.90
4687;DHT22;2357;47.316;-1.348;2023-04-01T05:54:52;10.00;99.90
4687;DHT22;2357;47.316;-1.348;2023-04-01T05:57:17;10.00;99.90
4687;DHT22;2357;47.316;-1.348;2023-04-01T05:59:43;9.90;99.90
4687;DHT22;2357;47.316;-1.348;2023-04-01T06:02:09;10.00;99.90
4687;DHT22;2357;47.316;-1.348;2023-04-01T06:04:39;10.00;99.90
4687;DHT22;2357;47.316;-1.348;2023-04-01T06:07:11;9.90;99.90
4687;DHT22;2357;47.316;-1.348;2023-04-01T06:09:38;10.00;99.90
4687;DHT22;2357;47.316;-1.348;2023-04-01T06:23:35;10.20;99.90
4687;DHT22;2357;47.316;-1.348;2023-04-01T06:34:13;10.40;99.90
4687;DHT22;2357;47.316;-1.348;2023-04-01T06:37:28;10.40;99.90
4687;DHT22;2357;47.316;-1.348;2023-04-01T06:43:07;10.50;99.90
4687;DHT22;2357;47.316;-1.348;2023-04-01T06:45:40;10.60;99.90
4687;DHT22;2357;47.316;-1.348;2023-04-01T06:51:07;10.70;99.90
4687;DHT22;2357;47.316;-1.348;2023-04-01T06:54:00;10.80;99.90
4687;DHT22;2357;47.316;-1.348;2023-04-01T06:56:28;10.80;99.90
4687;DHT22;2357;47.316;-1.348;2023-04-01T07:01:41;10.60;99.90
4687;DHT22;2357;47.316;-1.348;2023-04-01T07:04:11;10.50;99.90
4687;DHT22;2357;47.316;-1.348;2023-04-01T07:06:56;10.50;99.90
4687;DHT22;2357;47.316;-1.348;2023-04-01T07:09:26;10.60;99.90
4687;DHT22;2357;47.316;-1.348;2023-04-01T07:11:59;10.80;99.90
4687;DHT22;2357;47.316;-1.348;2023-04-01T07:14:34;10.90;99.90
4687;DHT22;2357;47.316;-1.348;2023-04-01T07:17:04;11.00;99.90
4687;DHT22;2357;47.316;-1.348;2023-04-01T07:22:35;11.10;99.90
4687;DHT22;2357;47.316;-1.348;2023-04-01T07:25:11;11.40;99.90
4687;DHT22;2357;47.316;-1.348;2023-04-01T07:27:37;11.80;99.90
4687;DHT22;2357;47.316;-1.348;2023-04-01T07:30:22;11.80;99.90
4687;DHT22;2357;47.316;-1.348;2023-04-01T07:32:55;11.70;99.90
4687;DHT22;2357;47.316;-1.348;2023-04-01T07:35:37;11.70;99.90
4687;DHT22;2357;47.316;-1.348;2023-04-01T07:46:47;11.80;99.90
4687;DHT22;2357;47.316;-1.348;2023-04-01T07:54:19;11.90;99.90
4687;DHT22;2357;47.316;-1.348;2023-04-01T08:07:21;11.90;99.90
4687;DHT22;2357;47.316;-1.348;2023-04-01T08:10:23;11.90;99.90
4687;DHT22;2357;47.316;-1.348;2023-04-01T08:13:20;11.90;99.90
4687;DHT22;2357;47.316;-1.348;2023-04-01T08:21:30;12.00;99.90
4687;DHT22;2357;47.316;-1.348;2023-04-01T08:23:58;11.90;99.90
4687;DHT22;2357;47.316;-1.348;2023-04-01T08:26:37;11.90;99.90
4687;DHT22;2357;47.316;-1.348;2023-04-01T08:29:20;11.70;99.90
4687;DHT22;2357;47.316;-1.348;2023-04-01T08:34:39;11.50;99.90
4687;DHT22;2357;47.316;-1.348;2023-04-01T08:37:19;11.60;99.90
4687;DHT22;2357;47.316;-1.348;2023-04-01T08:45:18;11.60;99.90
4687;DHT22;2357;47.316;-1.348;2023-04-01T08:51:47;11.60;99.90
4687;DHT22;2357;47.316;-1.348;2023-04-01T08:54:24;11.60;99.90
4687;DHT22;2357;47.316;-1.348;2023-04-01T09:08:03;11.30;99.90
4687;DHT22;2357;47.316;-1.348;2023-04-01T09:13:31;11.30;99.90
4687;DHT22;2357;47.316;-1.348;2023-04-01T09:19:12;11.20;99.90
4687;DHT22;2357;47.316;-1.348;2023-04-01T09:22:03;11.10;99.90
4687;DHT22;2357;47.316;-1.348;2023-04-01T09:25:01;11.10;99.90
4687;DHT22;2357;47.316;-1.348;2023-04-01T09:27:53;11.00;99.90
4687;DHT22;2357;47.316;-1.348;2023-04-01T09:34:01;10.90;99.90
4687;DHT22;2357;47.316;-1.348;2023-04-01T09:36:45;10.90;99.90
4687;DHT22;2357;47.316;-1.348;2023-04-01T09:42:06;10.90;99.90
4687;DHT22;2357;47.316;-1.348;2023-04-01T09:44:41;10.90;99.90
4687;DHT22;2357;47.316;-1.348;2023-04-01T09:50:17;10.80;99.90
4687;DHT22;2357;47.316;-1.348;2023-04-01T09:53:07;10.90;99.90
4687;DHT22;2357;47.316;-1.348;2023-04-01T10:10:37;11.10;99.90
4687;DHT22;2357;47.316;-1.348;2023-04-01T10:19:10;11.60;99.90
4687;DHT22;2357;47.316;-1.348;2023-04-01T10:24:33;12.10;99.90
4687;DHT22;2357;47.316;-1.348;2023-04-01T10:33:42;12.60;99.90
4687;DHT22;2357;47.316;-1.348;2023-04-01T10:41:46;13.30;99.90
4687;DHT22;2357;47.316;-1.348;2023-04-01T10:44:26;13.30;99.90
4687;DHT22;2357;47.316;-1.348;2023-04-01T10:49:48;13.40;99.90
4687;DHT22;2357;47.316;-1.348;2023-04-01T11:15:01;10.90;99.90
4687;DHT22;2357;47.316;-1.348;2023-04-01T11:47:48;11.00;99.90
4687;DHT22;2357;47.316;-1.348;2023-04-01T11:50:52;11.30;99.90
4687;DHT22;2357;47.316;-1.348;2023-04-01T11:56:13;11.70;99.90
4687;DHT22;2357;47.316;-1.348;2023-04-01T11:58:53;11.90;99.90
4687;DHT22;2357;47.316;-1.348;2023-04-01T12:01:36;11.90;99.90
4687;DHT22;2357;47.316;-1.348;2023-04-01T12:04:34;11.90;99.90
4687;DHT22;2357;47.316;-1.348;2023-04-01T12:09:51;12.20;99.90
4687;DHT22;2357;47.316;-1.348;2023-04-01T12:15:20;12.30;99.90
4687;DHT22;2357;47.316;-1.348;2023-04-01T12:26:13;11.80;99.90
4687;DHT22;2357;47.316;-1.348;2023-04-01T12:37:12;11.30;99.90
4687;DHT22;2357;47.316;-1.348;2023-04-01T12:40:03;11.30;99.90
4687;DHT22;2357;47.316;-1.348;2023-04-01T12:45:29;11.70;99.90
4687;DHT22;2357;47.316;-1.348;2023-04-01T12:47:59;11.80;99.90
4687;DHT22;2357;47.316;-1.348;2023-04-01T12:51:01;12.00;99.90
4687;DHT22;2357;47.316;-1.348;2023-04-01T13:02:32;12.70;99.90
4687;DHT22;2357;47.316;-1.348;2023-04-01T13:08:07;13.10;99.90
4687;DHT22;2357;47.316;-1.348;2023-04-01T13:13:23;13.50;99.90
4687;DHT22;2357;47.316;-1.348;2023-04-01T13:16:50;13.60;99.90
4687;DHT22;2357;47.316;-1.348;2023-04-01T13:19:01;13.90;99.90
4687;DHT22;2357;47.316;-1.348;2023-04-01T13:21:49;14.00;99.90
4687;DHT22;2357;47.316;-1.348;2023-04-01T13:24:39;14.10;99.90
4687;DHT22;2357;47.316;-1.348;2023-04-01T13:27:30;14.00;99.90
4687;DHT22;2357;47.316;-1.348;2023-04-01T13:41:40;13.70;99.90
4687;DHT22;2357;47.316;-1.348;2023-04-01T13:44:22;13.70;99.90
4687;DHT22;2357;47.316;-1.348;2023-04-01T14:02:44;12.40;99.90
4687;DHT22;2357;47.316;-1.348;2023-04-01T14:11:02;12.60;99.90
4687;DHT22;2357;47.316;-1.348;2023-04-01T14:13:37;12.80;99.90
4687;DHT22;2357;47.316;-1.348;2023-04-01T14:18:58;13.30;99.90
4687;DHT22;2357;47.316;-1.348;2023-04-01T14:21:47;14.00;99.90
4687;DHT22;2357;47.316;-1.348;2023-04-01T14:41:33;15.70;99.90
4687;DHT22;2357;47.316;-1.348;2023-04-01T14:47:34;15.50;99.90
4687;DHT22;2357;47.316;-1.348;2023-04-01T14:52:39;14.90;99.90
4687;DHT22;2357;47.316;-1.348;2023-04-01T14:55:21;15.30;99.90
4687;DHT22;2357;47.316;-1.348;2023-04-01T14:58:22;14.90;99.90
4687;DHT22;2357;47.316;-1.348;2023-04-01T15:01:40;14.90;99.90
4687;DHT22;2357;47.316;-1.348;2023-04-01T15:14:56;15.10;99.90
4687;DHT22;2357;47.316;-1.348;2023-04-01T15:28:22;15.80;99.90
4687;DHT22;2357;47.316;-1.348;2023-04-01T15:36:01;16.00;99.90
4687;DHT22;2357;47.316;-1.348;2023-04-01T15:41:15;15.50;99.90
4687;DHT22;2357;47.316;-1.348;2023-04-01T15:43:49;15.30;99.90
4687;DHT22;2357;47.316;-1.348;2023-04-01T15:49:12;16.00;99.90
4687;DHT22;2357;47.316;-1.348;2023-04-01T16:02:34;17.80;99.90
4687;DHT22;2357;47.316;-1.348;2023-04-01T16:10:36;16.80;99.90
4687;DHT22;2357;47.316;-1.348;2023-04-01T16:16:31;15.90;99.90
4687;DHT22;2357;47.316;-1.348;2023-04-01T16:21:58;15.50;99.90
4687;DHT22;2357;47.316;-1.348;2023-04-01T16:24:42;15.20;99.90
4687;DHT22;2357;47.316;-1.348;2023-04-01T16:27:29;15.10;99.90
4687;DHT22;2357;47.316;-1.348;2023-04-01T16:30:35;15.50;99.90
4687;DHT22;2357;47.316;-1.348;2023-04-01T16:38:49;16.20;99.90
4687;DHT22;2357;47.316;-1.348;2023-04-01T16:41:25;16.30;99.90
4687;DHT22;2357;47.316;-1.348;2023-04-01T16:44:30;18.20;99.90
4687;DHT22;2357;47.316;-1.348;2023-04-01T16:47:10;19.60;99.90
4687;DHT22;2357;47.316;-1.348;2023-04-01T16:52:15;17.20;99.90
4687;DHT22;2357;47.316;-1.348;2023-04-01T16:54:59;16.20;99.90
4687;DHT22;2357;47.316;-1.348;2023-04-01T16:57:46;15.60;99.90
4687;DHT22;2357;47.316;-1.348;2023-04-01T17:02:51;15.10;99.90
4687;DHT22;2357;47.316;-1.348;2023-04-01T17:05:18;15.00;99.90
4687;DHT22;2357;47.316;-1.348;2023-04-01T17:10:34;14.80;99.90
4687;DHT22;2357;47.316;-1.348;2023-04-01T17:21:49;14.60;99.90
4687;DHT22;2357;47.316;-1.348;2023-04-01T17:30:30;14.20;99.90
4687;DHT22;2357;47.316;-1.348;2023-04-01T17:41:36;14.00;99.90
4687;DHT22;2357;47.316;-1.348;2023-04-01T17:50:10;13.80;99.90
4687;DHT22;2357;47.316;-1.348;2023-04-01T17:55:37;13.70;99.90
4687;DHT22;2357;47.316;-1.348;2023-04-01T17:58:19;13.70;99.90
4687;DHT22;2357;47.316;-1.348;2023-04-01T18:11:54;13.30;99.90
4687;DHT22;2357;47.316;-1.348;2023-04-01T18:14:37;13.30;99.90
4687;DHT22;2357;47.316;-1.348;2023-04-01T18:17:23;13.10;99.90
4687;DHT22;2357;47.316;-1.348;2023-04-01T18:20:05;13.00;99.90
4687;DHT22;2357;47.316;-1.348;2023-04-01T18:22:44;13.00;99.90
4687;DHT22;2357;47.316;-1.348;2023-04-01T18:25:39;13.10;99.90
4687;DHT22;2357;47.316;-1.348;2023-04-01T18:30:58;13.00;99.90
4687;DHT22;2357;47.316;-1.348;2023-04-01T18:39:16;12.80;99.90
4687;DHT22;2357;47.316;-1.348;2023-04-01T18:50:36;12.90;99.90
4687;DHT22;2357;47.316;-1.348;2023-04-01T18:53:17;12.70;99.90
4687;DHT22;2357;47.316;-1.348;2023-04-01T18:55:56;12.90;99.90
4687;DHT22;2357;47.316;-1.348;2023-04-01T19:01:15;12.80;99.90
4687;DHT22;2357;47.316;-1.348;2023-04-01T19:03:52;12.80;99.90
4687;DHT22;2357;47.316;-1.348;2023-04-01T19:06:55;12.80;99.90
4687;DHT22;2357;47.316;-1.348;2023-04-01T19:09:45;12.80;99.90
4687;DHT22;2357;47.316;-1.348;2023-04-01T19:18:09;12.70;99.90
4687;DHT22;2357;47.316;-1.348;2023-04-01T19:21:14;12.70;99.90
4687;DHT22;2357;47.316;-1.348;2023-04-01T19:24:11;12.60;99.90
4687;DHT22;2357;47.316;-1.348;2023-04-01T19:26:52;12.70;99.90
4687;DHT22;2357;47.316;-1.348;2023-04-01T19:29:43;12.30;99.90
4687;DHT22;2357;47.316;-1.348;2023-04-01T19:37:57;12.20;99.90
4687;DHT22;2357;47.316;-1.348;2023-04-01T19:40:44;12.00;99.90
4687;DHT22;2357;47.316;-1.348;2023-04-01T20:00:54;12.10;99.90
4687;DHT22;2357;47.316;-1.348;2023-04-01T20:05:43;12.00;99.90
4687;DHT22;2357;47.316;-1.348;2023-04-01T20:08:22;11.90;99.90
4687;DHT22;2357;47.316;-1.348;2023-04-01T20:11:07;11.80;99.90
4687;DHT22;2357;47.316;-1.348;2023-04-01T20:14:05;11.80;99.90
4687;DHT22;2357;47.316;-1.348;2023-04-01T20:17:01;11.80;99.90
4687;DHT22;2357;47.316;-1.348;2023-04-01T20:21:58;11.70;99.90
4687;DHT22;2357;47.316;-1.348;2023-04-01T20:24:41;11.70;99.90
4687;DHT22;2357;47.316;-1.348;2023-04-01T20:40:57;11.70;99.90
4687;DHT22;2357;47.316;-1.348;2023-04-01T20:43:40;11.70;99.90
4687;DHT22;2357;47.316;-1.348;2023-04-01T20:46:22;11.70;99.90
4687;DHT22;2357;47.316;-1.348;2023-04-01T20:51:39;11.70;99.90
4687;DHT22;2357;47.316;-1.348;2023-04-01T20:54:26;11.70;99.90
4687;DHT22;2357;47.316;-1.348;2023-04-01T20:57:18;11.60;99.90
4687;DHT22;2357;47.316;-1.348;2023-04-01T21:02:32;11.40;99.90
4687;DHT22;2357;47.316;-1.348;2023-04-01T21:13:45;11.20;99.90
4687;DHT22;2357;47.316;-1.348;2023-04-01T21:19:23;11.10;99.90
4687;DHT22;2357;47.316;-1.348;2023-04-01T21:22:20;11.10;99.90
4687;DHT22;2357;47.316;-1.348;2023-04-01T21:27:42;11.00;99.90
4687;DHT22;2357;47.316;-1.348;2023-04-01T21:41:34;11.20;99.90
4687;DHT22;2357;47.316;-1.348;2023-04-01T21:58:25;11.40;99.90
4687;DHT22;2357;47.316;-1.348;2023-04-01T22:04:04;11.50;99.90
4687;DHT22;2357;47.316;-1.348;2023-04-01T22:10:13;11.30;99.90
4687;DHT22;2357;47.316;-1.348;2023-04-01T22:12:33;11.10;99.90
4687;DHT22;2357;47.316;-1.348;2023-04-01T22:15:11;11.30;99.90
4687;DHT22;2357;47.316;-1.348;2023-04-01T22:20:16;11.30;99.90
4687;DHT22;2357;47.316;-1.348;2023-04-01T22:26:02;11.20;99.90
4687;DHT22;2357;47.316;-1.348;2023-04-01T22:31:03;11.30;99.90
4687;DHT22;2357;47.316;-1.348;2023-04-01T22:44:51;11.30;99.90
4687;DHT22;2357;47.316;-1.348;2023-04-01T22:47:04;11.30;99.90
4687;DHT22;2357;47.316;-1.348;2023-04-01T22:49:32;11.30;99.90
4687;DHT22;2357;47.316;-1.348;2023-04-01T22:52:27;11.30;99.90
4687;DHT22;2357;47.316;-1.348;2023-04-01T22:55:00;11.10;99.90
4687;DHT22;2357;47.316;-1.348;2023-04-01T23:02:39;11.10;99.90
4687;DHT22;2357;47.316;-1.348;2023-04-01T23:05:11;11.30;99.90
4687;DHT22;2357;47.316;-1.348;2023-04-01T23:13:10;11.30;99.90
4687;DHT22;2357;47.316;-1.348;2023-04-01T23:15:39;11.30;99.90
4687;DHT22;2357;47.316;-1.348;2023-04-01T23:18:14;11.30;99.90
4687;DHT22;2357;47.316;-1.348;2023-04-01T23:20:50;11.30;99.90
4687;DHT22;2357;47.316;-1.348;2023-04-01T23:23:39;11.30;99.90
4687;DHT22;2357;47.316;-1.348;2023-04-01T23:28:49;11.30;99.90
4687;DHT22;2357;47.316;-1.348;2023-04-01T23:31:34;11.20;99.90
4687;DHT22;2357;47.316;-1.348;2023-04-01T23:34:03;11.30;99.90
4687;DHT22;2357;47.316;-1.348;2023-04-01T23:36:30;11.20;99.90
4687;DHT22;2357;47.316;-1.348;2023-04-01T23:39:02;11.20;99.90
4687;DHT22;2357;47.316;-1.348;2023-04-01T23:41:30;11.30;99.90
4687;DHT22;2357;47.316;-1.348;2023-04-01T23:44:08;11.20;99.90
4687;DHT22;2357;47.316;-1.348;2023-04-01T23:46:36;10.90;99.90
4687;DHT22;2357;47.316;-1.348;2023-04-01T23:49:03;11.00;99.90
4687;DHT22;2357;47.316;-1.348;2023-04-01T23:51:38;11.00;99.90
4687;DHT22;2357;47.316;-1.348;2023-04-01T23:54:16;11.00;99.90
4687;DHT22;2357;47.316;-1.348;2023-04-01T23:56:53;11.00;99.90
4687;DHT22;2357;47.316;-1.348;2023-04-01T23:59:30;11.10;99.90
